Time;durP1;ratioP1;P1;durP2;ratioP2;P2;SDS_P1;SDS_P2;PMS_P1;PMS_P2;Temp;Humidity;BMP_temperature;BMP_pressure;BME280_temperature;BME280_humidity;BME280_pressure;Samples;Min_cycle;Max_cycle;Signal;HPM_P1;HPM_P2
2021/01/25 00:00:36;;;;;;;;;0.00;0.00;20.30;64.80;;;19.26;50.02;101040.81;5024615;28;9623;-54
2021/01/25 00:03:03;;;;;;;;;0.00;0.00;20.40;65.10;;;19.23;50.09;101041.97;5025840;28;8790;-53
2021/01/25 00:05:31;;;;;;;;;0.00;0.00;20.40;65.30;;;19.27;50.11;101021.91;5033996;28;8890;-53
2021/01/25 00:07:59;;;;;;;;;0.00;0.00;20.50;65.40;;;19.28;50.30;101020.91;5026953;28;8805;-51
2021/01/25 00:10:25;;;;;;;;;0.00;0.00;20.50;65.20;;;19.28;50.21;101014.69;5031440;28;8878;-55
2021/01/25 00:12:52;;;;;;;;;0.00;0.00;20.40;65.10;;;19.27;50.08;101011.19;5028748;28;8802;-51
2021/01/25 00:15:19;;;;;;;;;0.00;0.00;20.50;65.20;;;19.26;50.09;101006.00;5025847;28;8798;-55
2021/01/25 00:17:46;;;;;;;;;0.00;0.00;20.40;65.20;;;19.24;50.28;101010.66;5021482;28;8842;-53
2021/01/25 00:20:14;;;;;;;;;0.00;0.00;20.40;65.30;;;19.23;50.40;101007.16;5024422;28;8798;-52
2021/01/25 00:22:41;;;;;;;;;0.00;0.00;20.50;65.60;;;19.26;50.55;101000.66;5022723;28;8821;-55
2021/01/25 00:25:09;;;;;;;;;0.00;0.00;20.50;65.80;;;19.27;50.37;100991.59;5023085;28;8832;-54
2021/01/25 00:27:35;;;;;;;;;0.00;0.00;20.30;65.50;;;19.27;50.75;100980.88;5026592;28;8940;-52
2021/01/25 00:30:05;;;;;;;;;0.00;0.00;20.50;65.50;;;19.26;50.44;100982.72;5022758;28;8784;-64
2021/01/25 00:32:32;;;;;;;;;0.00;0.00;20.40;65.60;;;19.25;50.68;100977.50;5023315;28;8808;-67
2021/01/25 00:34:58;;;;;;;;;0.00;0.00;20.40;65.70;;;19.26;50.64;100980.06;5030460;28;8860;-68
2021/01/25 00:37:25;;;;;;;;;0.00;0.00;20.30;65.70;;;19.24;50.82;100975.84;5022658;28;9768;-62
2021/01/25 00:39:52;;;;;;;;;0.00;0.00;20.40;66.10;;;19.23;51.04;100966.97;5023245;28;8791;-65
2021/01/25 00:42:19;;;;;;;;;0.00;0.00;20.30;66.10;;;19.29;51.02;100984.25;5023671;28;8841;-62
2021/01/25 00:44:46;;;;;;;;;0.00;0.00;20.40;66.20;;;19.29;50.69;100979.72;5017300;28;8808;-63
2021/01/25 00:47:12;;;;;;;;;0.00;0.00;20.50;65.90;;;19.30;51.03;100981.41;5028926;28;8814;-63
2021/01/25 00:49:39;;;;;;;;;1.00;1.00;20.40;66.30;;;19.31;51.04;100982.28;5018770;28;8930;-63
2021/01/25 00:52:07;;;;;;;;;0.00;0.00;20.50;65.70;;;19.29;50.96;100978.91;5022456;28;8837;-65
2021/01/25 00:54:34;;;;;;;;;1.00;0.00;20.40;65.70;;;19.29;50.92;100985.09;5024689;28;9577;-65
2021/01/25 00:57:01;;;;;;;;;0.00;0.00;20.60;66.00;;;19.29;51.04;100977.06;5025569;28;8809;-64
2021/01/25 00:59:28;;;;;;;;;0.00;0.00;20.50;66.00;;;19.27;51.67;100981.72;5022694;28;8791;-64
2021/01/25 01:01:55;;;;;;;;;0.00;0.00;20.40;66.60;;;19.30;51.19;100985.94;5019795;28;8852;-62
2021/01/25 01:04:22;;;;;;;;;0.00;0.00;20.40;66.40;;;19.32;51.00;100985.78;5027463;28;8784;-65
2021/01/25 01:06:49;;;;;;;;;0.00;0.00;20.50;66.10;;;19.34;50.97;100987.31;5022591;28;8972;-63
2021/01/25 01:09:16;;;;;;;;;0.00;0.00;20.60;65.80;;;19.34;50.95;100991.84;5023047;28;8824;-62
2021/01/25 01:11:43;;;;;;;;;0.00;0.00;20.70;65.80;;;19.32;51.14;100983.94;5018807;28;8790;-65
2021/01/25 01:14:10;;;;;;;;;0.00;0.00;20.50;65.90;;;19.35;51.22;100990.84;5021300;28;8831;-65
2021/01/25 01:16:37;;;;;;;;;0.00;0.00;20.80;66.40;;;19.37;51.23;100988.84;5025035;28;8833;-60
2021/01/25 01:19:04;;;;;;;;;0.00;0.00;20.60;66.10;;;19.39;51.03;100993.06;5023330;28;9046;-64
2021/01/25 01:21:31;;;;;;;;;0.00;0.00;20.70;65.90;;;19.40;50.75;100993.91;5016848;28;8784;-67
2021/01/25 01:23:58;;;;;;;;;0.00;0.00;20.60;65.60;;;19.38;50.66;100996.72;5019699;28;8895;-64
2021/01/25 01:26:25;;;;;;;;;0.00;0.00;20.40;65.60;;;19.37;50.71;100988.84;5022272;28;8919;-65
2021/01/25 01:28:52;;;;;;;;;0.00;0.00;20.50;65.70;;;19.36;50.98;100990.69;5019805;28;8771;-56
2021/01/25 01:31:18;;;;;;;;;0.00;0.00;20.70;66.40;;;19.40;50.75;100980.50;5028567;28;8794;-64
2021/01/25 01:33:45;;;;;;;;;0.00;0.00;20.60;66.10;;;19.43;50.94;100978.34;5023053;28;8785;-66
2021/01/25 01:36:12;;;;;;;;;0.00;0.00;20.70;65.80;;;19.43;50.62;100988.22;5023973;28;8794;-64
2021/01/25 01:38:39;;;;;;;;;0.00;0.00;20.70;65.60;;;19.41;50.74;100982.16;5028282;28;8780;-56
2021/01/25 01:41:06;;;;;;;;;0.00;0.00;20.60;65.90;;;19.44;50.78;100996.13;5038059;28;8813;-67
2021/01/25 01:43:33;;;;;;;;;0.00;0.00;20.70;66.10;;;19.45;50.79;100984.38;5032695;28;8794;-64
2021/01/25 01:46:00;;;;;;;;;0.00;0.00;20.50;66.30;;;19.51;50.78;100974.88;5029978;28;8904;-64
2021/01/25 01:48:27;;;;;;;;;0.00;0.00;20.60;66.10;;;19.57;50.62;100971.59;5015035;28;8799;-64
2021/01/25 01:50:55;;;;;;;;;0.00;0.00;20.70;65.80;;;19.60;50.36;100968.59;5022575;28;8908;-68
2021/01/25 01:53:22;;;;;;;;;0.00;0.00;20.80;65.50;;;19.61;50.16;100972.13;5014856;28;8786;-66
2021/01/25 01:55:49;;;;;;;;;0.00;0.00;20.80;65.20;;;19.62;50.02;100973.81;5017777;28;8861;-69
2021/01/25 01:58:19;;;;;;;;;0.00;0.00;20.60;65.30;;;19.62;50.40;100966.63;5030192;28;8777;-64
2021/01/25 02:00:46;;;;;;;;;0.00;0.00;20.60;65.70;;;19.66;50.49;100967.13;5018416;28;8817;-64
2021/01/25 02:03:13;;;;;;;;;0.00;0.00;20.70;66.00;;;19.71;50.50;100957.66;5021812;28;8823;-64
2021/01/25 02:05:43;;;;;;;;;0.00;0.00;20.80;65.80;;;19.76;49.95;100959.03;5017974;28;8796;-62
2021/01/25 02:08:11;;;;;;;;;0.00;0.00;20.80;65.30;;;19.76;49.95;100959.88;5034656;28;8850;-66
2021/01/25 02:10:39;;;;;;;;;0.00;0.00;20.90;65.20;;;19.77;49.92;100950.00;5013514;28;8804;-67
2021/01/25 02:13:06;;;;;;;;;0.00;0.00;20.90;65.30;;;19.77;49.76;100950.00;5017099;28;8828;-64
2021/01/25 02:15:33;;;;;;;;;1.00;0.00;20.90;65.50;;;19.78;50.29;100940.97;5004937;28;8808;-58
2021/01/25 02:18:00;;;;;;;;;0.00;0.00;20.70;66.00;;;19.85;49.72;100936.66;5032374;28;8807;-58
2021/01/25 02:20:36;;;;;;;;;0.00;0.00;20.80;65.50;;;19.90;49.60;100937.03;5016468;28;8808;-57
2021/01/25 02:23:24;;;;;;;;;0.00;0.00;20.90;64.90;;;19.89;49.38;100940.69;5026312;28;8795;-58
2021/01/25 02:26:20;;;;;;;;;0.00;0.00;21.00;64.80;;;19.89;49.24;100932.66;5030530;28;8794;-57
2021/01/25 02:28:48;;;;;;;;;0.00;0.00;20.90;64.90;;;19.91;49.18;100946.75;5022773;28;8808;-56
2021/01/25 02:31:16;;;;;;;;;0.00;0.00;20.90;65.00;;;19.90;49.37;100932.50;5026929;28;8824;-58
2021/01/25 02:33:53;;;;;;;;;0.00;0.00;20.80;65.20;;;19.96;49.05;100928.34;5025995;28;8798;-58
2021/01/25 02:36:20;;;;;;;;;0.00;0.00;20.80;64.80;;;19.99;49.11;100919.97;5007962;28;8914;-62
2021/01/25 02:38:50;;;;;;;;;0.00;0.00;21.10;64.70;;;20.01;49.05;100911.78;5023307;28;8801;-63
2021/01/25 02:41:25;;;;;;;;;0.00;0.00;21.10;64.70;;;20.00;49.14;100912.75;5009180;28;8802;-67
2021/01/25 02:43:52;;;;;;;;;1.00;0.00;21.10;64.70;;;20.03;48.97;100912.47;5014827;28;8759;-65
2021/01/25 02:46:21;;;;;;;;;0.20;0.20;21.00;64.70;;;20.02;49.40;100903.56;5029296;28;8893;-59
2021/01/25 02:48:48;;;;;;;;;0.00;0.00;21.00;65.50;;;20.05;50.28;100900.56;5021899;28;8809;-61
2021/01/25 02:51:15;;;;;;;;;0.00;0.00;20.90;66.20;;;20.10;50.11;100882.16;5017857;28;8782;-63
2021/01/25 02:53:42;;;;;;;;;0.00;0.00;21.10;65.80;;;20.12;50.02;100882.84;5023212;28;8883;-60
2021/01/25 02:56:11;;;;;;;;;0.40;0.00;21.10;65.50;;;20.12;49.50;100879.31;5030384;28;8835;-65
2021/01/25 02:58:39;;;;;;;;;0.00;0.00;20.90;65.10;;;20.12;49.28;100880.16;5017935;28;8810;-70
2021/01/25 03:01:06;;;;;;;;;0.00;0.00;21.00;65.10;;;20.13;48.92;100881.00;5011156;28;8813;-65
2021/01/25 03:03:35;;;;;;;;;0.00;0.00;21.00;65.00;;;20.12;49.62;100871.25;5028834;28;8801;-66
2021/01/25 03:06:02;;;;;;;;;0.00;0.00;21.20;65.80;;;20.14;49.10;100869.25;5026891;28;8775;-65
2021/01/25 03:08:29;;;;;;;;;0.00;0.00;21.10;65.30;;;20.20;49.17;100865.09;5014697;28;8778;-64
2021/01/25 03:10:56;;;;;;;;;0.00;0.00;21.20;64.90;;;20.21;48.83;100872.16;5025494;28;8794;-64
2021/01/25 03:13:29;;;;;;;;;0.00;0.00;21.30;64.70;;;20.20;49.01;100865.94;5006335;28;8890;-68
2021/01/25 03:15:58;;;;;;;;;0.00;0.00;21.30;64.70;;;20.20;48.76;100860.59;5029945;28;8818;-63
2021/01/25 03:18:26;;;;;;;;;0.00;0.00;21.10;64.70;;;20.21;48.77;100861.41;5024289;28;8880;-66
2021/01/25 03:20:55;;;;;;;;;0.00;0.00;21.00;64.70;;;20.22;48.84;100863.09;5028993;28;8776;-64
2021/01/25 03:23:22;;;;;;;;;0.00;0.00;21.00;65.10;;;20.18;49.12;100859.91;5031501;28;8890;-65
2021/01/25 03:25:49;;;;;;;;;0.00;0.00;21.00;65.60;;;20.20;49.38;100857.03;5031610;28;8773;-65
2021/01/25 03:28:16;;;;;;;;;0.00;0.00;21.00;65.70;;;20.24;49.43;100861.91;5023066;28;8784;-66
2021/01/25 03:30:43;;;;;;;;;0.00;0.00;21.30;65.50;;;20.28;49.13;100865.13;5022890;28;8822;-63
2021/01/25 03:33:10;;;;;;;;;1.20;0.00;21.10;65.20;;;20.26;49.19;100870.66;5019666;28;8825;-69
2021/01/25 03:35:37;;;;;;;;;0.00;0.00;21.20;65.40;;;20.28;49.27;100886.59;5026053;28;9514;-73
2021/01/25 03:38:04;;;;;;;;;0.40;0.00;21.20;65.50;;;20.26;49.38;100907.38;5023547;28;9525;-74
2021/01/25 03:40:31;;;;;;;;;0.00;0.00;21.10;65.70;;;20.29;49.41;100925.81;5011486;28;8808;-73
2021/01/25 03:42:58;;;;;;;;;0.00;0.00;21.00;65.90;;;20.26;49.53;100929.66;5021813;28;8834;-68
2021/01/25 03:45:25;;;;;;;;;0.00;0.00;21.00;66.20;;;20.26;49.74;100939.56;5022494;28;8940;-68
2021/01/25 03:47:51;;;;;;;;;0.00;0.00;20.90;66.40;;;20.27;49.63;100951.97;5018794;28;8873;-72
2021/01/25 03:50:18;;;;;;;;;0.00;0.00;20.90;66.40;;;20.22;49.93;100955.13;5008625;28;8803;-56
2021/01/25 03:52:45;;;;;;;;;0.00;0.00;20.70;66.70;;;20.21;49.77;100958.81;5019922;28;9592;-60
2021/01/25 03:55:12;;;;;;;;;1.00;1.00;20.90;66.80;;;20.20;49.54;100967.88;5024047;28;8830;-60
2021/01/25 03:57:39;;;;;;;;;0.40;0.00;20.90;66.60;;;20.16;49.56;100964.66;5018404;28;8788;-60
2021/01/25 04:00:08;;;;;;;;;0.00;0.00;20.70;66.30;;;20.13;49.63;100967.66;5021252;28;9560;-60
2021/01/25 04:02:35;;;;;;;;;0.00;0.00;20.70;66.30;;;20.09;49.47;100966.28;5029549;28;8806;-60
2021/01/25 04:05:02;;;;;;;;;0.40;0.00;20.90;67.20;;;20.08;49.57;100979.88;5025234;28;8939;-59
2021/01/25 04:07:28;;;;;;;;;1.60;0.80;20.80;66.50;;;20.05;49.55;100974.78;5020577;28;8866;-60
2021/01/25 04:09:55;;;;;;;;;0.00;0.00;20.80;66.50;;;20.00;49.44;100972.63;5022867;28;9057;-60
2021/01/25 04:12:22;;;;;;;;;0.40;0.40;20.60;66.40;;;19.98;49.39;100961.19;5017442;28;8812;-60
2021/01/25 04:14:49;;;;;;;;;0.00;0.00;20.70;66.60;;;19.97;49.43;100972.06;5015879;28;8834;-60
2021/01/25 04:17:16;;;;;;;;;0.00;0.00;20.60;67.10;;;19.95;49.48;100982.97;5024329;28;8821;-60
2021/01/25 04:19:43;;;;;;;;;0.00;0.00;20.70;66.60;;;19.92;49.20;100976.09;5022928;28;9609;-60
2021/01/25 04:22:09;;;;;;;;;0.60;0.00;20.60;66.30;;;19.91;49.22;100968.19;5022150;28;8813;-60
2021/01/25 04:24:36;;;;;;;;;0.00;0.00;20.60;66.30;;;19.89;49.18;100988.94;5018953;28;8791;-60
2021/01/25 04:27:03;;;;;;;;;0.00;0.00;20.60;66.40;;;19.85;49.28;100984.91;5022686;28;9518;-59
2021/01/25 04:29:30;;;;;;;;;0.40;0.00;20.50;66.10;;;19.83;49.29;100992.28;5020138;28;8838;-59
2021/01/25 04:31:57;;;;;;;;;0.20;0.00;20.60;66.20;;;19.82;49.23;100985.22;5012160;28;8831;-60
2021/01/25 04:34:24;;;;;;;;;0.00;0.00;20.50;66.30;;;19.79;49.27;100985.53;5029173;28;8896;-60
2021/01/25 04:36:51;;;;;;;;;1.00;1.00;20.60;66.20;;;19.77;49.38;100987.50;5021997;28;8800;-59
2021/01/25 04:39:17;;;;;;;;;0.00;0.00;20.60;66.00;;;19.74;49.19;100972.59;5030120;28;8787;-60
2021/01/25 04:41:45;;;;;;;;;0.00;0.00;20.50;65.70;;;19.72;48.98;100974.59;5020900;28;8958;-60
2021/01/25 04:44:12;;;;;;;;;0.00;0.00;20.50;65.20;;;19.70;49.36;100968.56;5018177;28;8953;-60
2021/01/25 04:46:39;;;;;;;;;0.00;0.00;20.50;65.80;;;19.71;49.68;100970.22;5006714;28;8941;-60
2021/01/25 04:49:06;;;;;;;;;0.00;0.00;20.80;65.80;;;19.72;49.58;100972.75;5027972;28;8945;-59
2021/01/25 04:51:34;;;;;;;;;0.00;0.00;20.50;65.20;;;19.73;49.48;100971.75;5032525;28;8801;-60
2021/01/25 04:54:02;;;;;;;;;0.00;0.00;20.90;65.30;;;19.70;49.51;100981.97;5020295;28;8771;-59
2021/01/25 04:56:31;;;;;;;;;0.00;0.00;20.60;65.10;;;19.68;49.42;100979.41;5024023;28;8800;-59
2021/01/25 04:58:58;;;;;;;;;0.00;0.00;20.50;65.30;;;19.67;49.54;100983.09;5012758;28;8831;-60
2021/01/25 05:01:26;;;;;;;;;0.80;0.00;20.50;65.30;;;19.65;49.47;100997.63;5023972;28;8778;-59
2021/01/25 05:03:52;;;;;;;;;0.00;0.00;20.80;65.60;;;19.63;49.59;100992.41;5027549;28;8785;-59
2021/01/25 05:06:20;;;;;;;;;0.00;0.00;20.60;65.80;;;19.62;49.54;100985.38;5021431;28;8828;-59
2021/01/25 05:08:47;;;;;;;;;0.00;0.00;20.50;65.60;;;19.60;49.76;100982.00;5015102;28;8773;-59
2021/01/25 05:11:19;;;;;;;;;0.00;0.00;20.50;65.70;;;19.58;49.75;100978.63;5025318;28;8817;-60
2021/01/25 05:13:46;;;;;;;;;1.00;0.60;20.40;65.60;;;19.58;49.67;100977.81;5033483;28;8794;-60
2021/01/25 05:16:21;;;;;;;;;0.00;0.00;20.30;65.60;;;19.60;49.89;100976.66;5033338;28;8802;-60
2021/01/25 05:19:03;;;;;;;;;0.00;0.00;20.60;65.40;;;19.60;49.61;100971.28;5028760;28;8772;-60
2021/01/25 05:21:44;;;;;;;;;0.20;0.00;20.80;65.10;;;19.59;49.51;100960.72;5025704;28;8762;-60
2021/01/25 05:24:13;;;;;;;;;0.00;0.00;20.70;65.10;;;19.56;49.63;100961.88;5024346;28;8814;-59
2021/01/25 05:27:01;;;;;;;;;0.00;0.00;20.60;65.10;;;19.54;49.57;100953.16;5032799;28;8869;-60
2021/01/25 05:29:29;;;;;;;;;1.00;1.00;20.40;65.20;;;19.52;49.59;100964.03;5028367;28;9522;-60
2021/01/25 05:31:57;;;;;;;;;0.00;0.00;20.50;65.40;;;19.52;49.78;100965.88;5031167;28;8810;-60
2021/01/25 05:34:24;;;;;;;;;0.60;0.00;20.40;65.40;;;19.49;49.70;100971.53;5018772;28;9524;-60
2021/01/25 05:36:51;;;;;;;;;1.00;1.00;20.40;65.50;;;19.45;49.62;100971.00;5027733;28;8816;-60
2021/01/25 05:39:19;;;;;;;;;1.00;0.00;20.50;65.50;;;19.47;49.76;100970.84;5029309;28;8790;-60
2021/01/25 05:41:55;;;;;;;;;0.00;0.00;20.60;65.50;;;19.50;49.61;100965.19;5034764;28;8842;-60
2021/01/25 05:44:22;;;;;;;;;0.00;0.00;20.70;65.20;;;19.50;49.55;100965.19;5027728;28;8822;-60
2021/01/25 05:46:49;;;;;;;;;0.00;0.00;20.50;64.90;;;19.48;49.46;100956.44;5025501;28;8812;-59
2021/01/25 05:49:26;;;;;;;;;0.40;0.00;20.50;64.90;;;19.47;49.50;100977.03;5026491;28;8826;-60
2021/01/25 05:51:54;;;;;;;;;0.00;0.00;20.50;65.20;;;19.44;49.54;100966.66;5024679;28;8800;-60
2021/01/25 05:54:24;;;;;;;;;0.00;0.00;20.30;65.10;;;19.43;49.63;100964.94;5024887;28;8756;-60
2021/01/25 05:56:52;;;;;;;;;0.80;0.00;20.40;65.40;;;19.43;49.42;100958.75;5027068;28;8812;-59
2021/01/25 05:59:20;;;;;;;;;0.00;0.00;20.30;65.40;;;19.44;49.39;100979.22;5025468;28;8814;-59
2021/01/25 06:01:50;;;;;;;;;1.00;1.00;20.50;65.20;;;19.45;49.29;100956.75;5016315;28;8882;-58
2021/01/25 06:04:21;;;;;;;;;0.00;0.00;20.60;64.70;;;19.46;49.21;100974.50;5025999;28;8805;-59
2021/01/25 06:07:05;;;;;;;;;0.00;0.00;20.60;64.50;;;19.43;49.06;100964.94;5018915;28;8840;-59
2021/01/25 06:09:55;;;;;;;;;0.00;0.00;20.70;64.70;;;19.46;49.02;100969.16;5017571;28;8783;-59
2021/01/25 06:12:35;;;;;;;;;0.00;0.00;20.60;64.70;;;19.44;49.33;100972.00;5020733;28;8788;-59
2021/01/25 06:15:21;;;;;;;;;0.00;0.00;20.40;64.90;;;19.42;49.69;100975.84;5022059;28;8885;-59
2021/01/25 06:17:49;;;;;;;;;3.20;0.20;20.40;65.20;;;19.41;49.59;100983.03;5005846;28;8820;-59
2021/01/25 06:20:19;;;;;;;;;0.00;0.00;20.40;65.30;;;19.41;49.72;100979.50;5023050;28;9530;-59
2021/01/25 06:22:46;;;;;;;;;1.00;0.00;20.40;65.40;;;19.40;49.88;100981.34;5020794;28;8925;-59
2021/01/25 06:25:15;;;;;;;;;1.00;0.00;20.40;65.40;;;19.39;49.69;100976.16;5009880;28;8790;-59
2021/01/25 06:27:46;;;;;;;;;0.20;0.00;20.40;65.40;;;19.37;49.88;100984.31;5001815;28;8812;-59
2021/01/25 06:30:14;;;;;;;;;0.00;0.00;20.50;65.60;;;19.36;50.09;100979.97;5015021;28;8938;-61
2021/01/25 06:32:46;;;;;;;;;1.25;1.00;20.30;65.50;;;19.38;49.99;100985.16;5030316;28;9561;-58
2021/01/25 06:35:16;;;;;;;;;0.00;0.00;20.30;65.80;;;19.38;49.88;100985.16;5014447;28;8912;-58
2021/01/25 06:37:49;;;;;;;;;0.20;0.20;20.40;65.70;;;19.35;50.20;100986.31;5014661;28;8855;-58
2021/01/25 06:40:26;;;;;;;;;0.50;0.50;20.30;65.60;;;19.33;50.26;100979.44;5027661;28;8817;-58
2021/01/25 06:42:54;;;;;;;;;0.75;0.00;20.40;65.70;;;19.32;50.22;100978.59;5016963;28;8815;-58
2021/01/25 06:45:25;;;;;;;;;0.00;0.00;20.20;65.60;;;19.30;50.08;100981.41;5014694;28;8804;-58
2021/01/25 06:47:52;;;;;;;;;1.00;0.00;20.40;65.80;;;19.29;50.17;100977.06;5025111;28;8854;-58
2021/01/25 06:50:20;;;;;;;;;0.20;0.00;20.30;65.90;;;19.27;50.30;100981.72;5013950;28;8827;-58
2021/01/25 06:52:49;;;;;;;;;1.00;0.00;20.30;66.00;;;19.25;50.31;100988.22;5016322;28;8785;-58
2021/01/25 06:55:17;;;;;;;;;0.00;0.00;20.20;66.00;;;19.23;50.46;100990.22;5020905;28;9599;-58
2021/01/25 06:57:47;;;;;;;;;1.00;0.00;20.20;66.00;;;19.22;50.40;100997.41;5018615;28;8800;-58
2021/01/25 07:00:21;;;;;;;;;1.00;0.00;20.20;66.00;;;19.20;50.50;100986.00;5018539;28;8796;-58
2021/01/25 07:02:57;;;;;;;;;0.00;0.00;20.30;66.10;;;19.20;50.25;100988.69;5024734;28;8804;-58
2021/01/25 07:05:28;;;;;;;;;0.00;0.00;20.40;66.20;;;19.19;50.49;100989.69;5021525;28;8872;-58
2021/01/25 07:08:17;;;;;;;;;0.00;0.00;20.20;66.20;;;19.17;50.65;100990.84;5020167;28;8883;-57
2021/01/25 07:10:57;;;;;;;;;1.00;0.25;20.00;66.20;;;19.17;50.60;100983.63;5023596;28;8779;-58
2021/01/25 07:13:35;;;;;;;;;0.00;0.00;20.10;66.30;;;19.13;50.45;100995.63;5023350;28;8883;-58
2021/01/25 07:16:04;;;;;;;;;0.00;0.00;20.10;66.30;;;19.12;50.52;100991.28;5024689;28;8772;-58
2021/01/25 07:18:31;;;;;;;;;0.00;0.00;20.00;66.30;;;19.12;50.70;100990.44;5020771;28;8891;-58
2021/01/25 07:21:03;;;;;;;;;0.00;0.00;20.20;66.50;;;19.09;50.74;100992.44;5019611;28;8778;-58
2021/01/25 07:23:33;;;;;;;;;0.75;0.75;20.00;66.40;;;19.09;50.72;100983.56;5039063;28;9548;-58
2021/01/25 07:26:02;;;;;;;;;0.25;0.00;20.00;66.50;;;19.08;50.74;100987.22;5015669;28;8795;-58
2021/01/25 07:28:31;;;;;;;;;0.00;0.00;20.00;66.60;;;19.07;50.76;100977.50;5027494;28;9532;-58
2021/01/25 07:30:59;;;;;;;;;0.80;0.00;20.00;66.50;;;19.05;50.78;100982.16;5029446;28;8916;-58
2021/01/25 07:33:26;;;;;;;;;0.00;0.00;20.00;66.50;;;19.04;50.86;100977.81;5023666;28;8899;-58
2021/01/25 07:35:55;;;;;;;;;0.00;0.00;20.00;66.50;;;19.03;50.69;100985.00;5018889;28;8894;-58
2021/01/25 07:38:23;;;;;;;;;0.00;0.00;20.00;66.70;;;19.02;50.79;100982.47;5026553;28;8778;-58
2021/01/25 07:40:51;;;;;;;;;0.00;0.00;20.00;66.60;;;19.02;50.78;101001.22;5016976;28;8792;-58
2021/01/25 07:43:19;;;;;;;;;0.00;0.00;19.90;66.60;;;18.98;50.81;100992.66;5021605;28;8838;-58
2021/01/25 07:45:51;;;;;;;;;1.00;1.00;19.80;66.60;;;18.98;51.03;100997.16;5021737;28;8890;-58
2021/01/25 07:48:19;;;;;;;;;0.00;0.00;20.10;66.80;;;18.97;50.83;101004.34;5013396;28;8838;-58
2021/01/25 07:50:59;;;;;;;;;0.00;0.00;20.00;66.70;;;18.96;50.76;101007.19;5020006;28;8837;-58
2021/01/25 07:53:33;;;;;;;;;0.00;0.00;19.80;66.60;;;18.94;50.89;100988.59;5019007;28;8939;-58
2021/01/25 07:56:00;;;;;;;;;1.80;0.00;19.90;66.70;;;18.91;50.99;100990.72;5027294;28;9524;-58
2021/01/25 07:58:27;;;;;;;;;0.00;0.00;19.60;66.50;;;18.91;50.80;100982.69;5018769;28;8796;-58
2021/01/25 08:00:54;;;;;;;;;0.00;0.00;19.70;66.60;;;18.89;50.97;100976.66;4997792;28;8808;-57
2021/01/25 08:03:30;;;;;;;;;0.20;0.20;19.90;66.70;;;18.89;50.87;100979.31;5019553;28;8796;-57
2021/01/25 08:06:06;;;;;;;;;0.25;0.25;19.80;66.70;;;18.85;50.92;100976.97;5000904;28;8795;-57
2021/01/25 08:08:33;;;;;;;;;1.00;0.00;19.90;66.80;;;18.84;50.91;100964.56;5008266;28;10962;-57
2021/01/25 08:11:05;;;;;;;;;0.00;0.00;19.80;67.40;;;18.84;50.88;100969.06;5031940;28;8882;-57
2021/01/25 08:13:40;;;;;;;;;0.25;0.00;19.60;66.70;;;18.80;51.09;100965.84;5032212;28;8810;-57
2021/01/25 08:16:19;;;;;;;;;1.00;0.00;19.70;66.80;;;18.81;51.00;100964.03;5009594;28;8888;-57
2021/01/25 08:19:10;;;;;;;;;0.00;0.00;19.70;66.90;;;18.79;51.13;100964.16;5008979;28;8835;-57
2021/01/25 08:21:49;;;;;;;;;0.00;0.00;19.70;66.80;;;18.78;51.07;100975.03;4998131;28;8886;-57
2021/01/25 08:24:16;;;;;;;;;0.00;0.00;19.70;66.80;;;18.75;51.03;100960.13;5021934;28;9648;-57
2021/01/25 08:26:43;;;;;;;;;1.00;0.00;19.70;66.80;;;18.73;51.11;100959.38;5016786;28;8856;-57
2021/01/25 08:29:24;;;;;;;;;0.00;0.00;19.70;66.90;;;18.70;51.08;100954.34;5019203;28;8798;-57
2021/01/25 08:31:51;;;;;;;;;0.00;0.00;19.50;66.70;;;18.72;51.12;100963.03;5009413;28;8805;-57
2021/01/25 08:34:29;;;;;;;;;0.00;0.00;19.60;66.90;;;18.69;51.20;100963.34;5028341;28;8798;-57
2021/01/25 08:37:13;;;;;;;;;0.00;0.00;19.70;66.90;;;18.68;51.03;100958.16;5024704;28;8828;-57
2021/01/25 08:39:46;;;;;;;;;0.00;0.00;19.40;66.70;;;18.66;51.35;100963.66;5017221;28;8958;-57
2021/01/25 08:42:22;;;;;;;;;0.00;0.00;19.70;67.00;;;18.66;51.42;100963.66;5020803;28;8826;-57
2021/01/25 08:45:08;;;;;;;;;0.00;0.00;19.60;66.90;;;18.64;51.28;100961.09;5013203;28;8814;-57
2021/01/25 08:47:36;;;;;;;;;0.25;0.00;19.50;66.80;;;18.63;51.30;100964.78;5023418;28;8911;-57
2021/01/25 08:50:18;;;;;;;;;2.00;0.00;19.60;66.90;;;18.62;51.36;100960.44;5013661;28;8805;-57
2021/01/25 08:52:45;;;;;;;;;0.25;0.00;19.60;66.90;;;18.60;51.49;100964.25;5013355;28;8807;-57
2021/01/25 08:55:28;;;;;;;;;0.50;0.50;19.60;67.10;;;18.59;51.42;100965.22;5020311;28;8831;-58
2021/01/25 08:57:56;;;;;;;;;1.00;0.00;19.50;67.10;;;18.59;51.33;100954.53;5024082;28;8792;-58
2021/01/25 09:00:34;;;;;;;;;0.00;0.00;19.60;67.20;;;18.57;51.64;100952.03;5021166;28;8868;-58
2021/01/25 09:03:05;;;;;;;;;1.00;0.75;19.60;67.20;;;18.57;51.36;100943.13;5019785;28;8933;-57
2021/01/25 09:05:32;;;;;;;;;0.00;0.00;19.60;67.20;;;18.55;51.47;100945.13;5023526;28;8911;-58
2021/01/25 09:08:00;;;;;;;;;0.00;0.00;19.40;67.10;;;18.54;51.48;100940.75;5018642;28;8937;-58
2021/01/25 09:10:26;;;;;;;;;0.00;0.00;19.60;67.20;;;18.53;51.58;100939.91;5023178;28;8839;-58
2021/01/25 09:12:53;;;;;;;;;0.25;0.00;19.50;67.10;;;18.53;51.62;100939.91;5031801;28;8787;-57
2021/01/25 09:15:26;;;;;;;;;0.00;0.00;19.60;67.20;;;18.50;51.52;100934.88;5031581;28;8786;-58
2021/01/25 09:17:55;;;;;;;;;0.00;0.00;19.60;67.20;;;18.50;51.68;100934.03;5027045;28;8784;-57
2021/01/25 09:20:22;;;;;;;;;0.00;0.00;19.40;67.10;;;18.49;51.70;100943.88;5029572;28;8786;-58
2021/01/25 09:22:49;;;;;;;;;0.25;0.00;19.60;67.30;;;18.49;51.76;100943.88;5028620;28;8868;-58
2021/01/25 09:25:18;;;;;;;;;0.00;0.00;19.60;67.30;;;18.47;51.62;100935.19;5013897;28;8830;-56
2021/01/25 09:27:45;;;;;;;;;0.00;0.00;19.60;67.20;;;18.45;51.69;100942.50;5019662;28;9541;-58
2021/01/25 09:30:16;;;;;;;;;0.00;0.00;19.40;67.70;;;18.43;51.58;100923.91;5016436;28;8799;-57
2021/01/25 09:32:43;;;;;;;;;0.00;0.00;19.60;67.30;;;18.43;51.59;100926.59;5017416;28;8802;-57
2021/01/25 09:35:15;;;;;;;;;0.00;0.00;19.30;67.20;;;18.42;51.66;100922.25;5018826;28;8868;-58
2021/01/25 09:37:43;;;;;;;;;0.00;0.00;19.40;67.30;;;18.41;51.45;100914.34;5026938;28;8806;-58
2021/01/25 09:40:14;;;;;;;;;0.00;0.00;19.40;67.20;;;18.39;51.66;100917.19;5026214;28;8791;-58
2021/01/25 09:42:41;;;;;;;;;0.00;0.00;19.30;67.20;;;18.39;51.69;100919.88;5027167;28;8791;-58
2021/01/25 09:45:11;;;;;;;;;0.50;0.50;19.30;67.20;;;18.39;51.88;100929.69;5012021;28;8874;-57
2021/01/25 09:47:39;;;;;;;;;0.00;0.00;19.40;67.30;;;18.37;51.76;100927.19;5018408;28;8810;-57
2021/01/25 09:50:10;;;;;;;;;0.00;0.00;19.30;67.30;;;18.36;51.98;100924.66;5012961;28;8896;-58
2021/01/25 09:52:39;;;;;;;;;0.00;0.00;19.20;67.30;;;18.35;52.06;100929.16;5013901;28;8808;-58
2021/01/25 09:55:07;;;;;;;;;0.00;0.00;19.30;67.40;;;18.37;51.82;100923.69;5016571;28;8838;-58
2021/01/25 09:57:34;;;;;;;;;0.25;0.00;19.30;67.50;;;18.36;52.17;100922.81;5015245;28;8872;-58
2021/01/25 10:00:00;;;;;;;;;0.00;0.00;19.30;67.50;;;18.34;52.11;100930.19;5020124;28;8841;-58
2021/01/25 10:02:27;;;;;;;;;0.00;0.00;19.30;68.30;;;18.34;52.04;100908.78;5030459;28;8793;-58
2021/01/25 10:04:54;;;;;;;;;0.00;0.00;19.10;67.60;;;18.34;52.16;100919.47;5015941;28;8780;-58
2021/01/25 10:07:21;;;;;;;;;0.00;0.00;19.30;67.60;;;18.35;51.94;100921.16;5017338;28;8828;-58
2021/01/25 10:09:47;;;;;;;;;0.75;0.00;19.30;67.60;;;18.33;52.12;100912.44;5015393;28;8775;-58
2021/01/25 10:12:14;;;;;;;;;0.00;0.00;19.30;67.70;;;18.32;52.05;100932.16;5021410;28;8783;-57
2021/01/25 10:14:41;;;;;;;;;0.00;0.00;19.20;67.60;;;18.32;51.93;100937.50;5015211;28;8785;-58
2021/01/25 10:17:08;;;;;;;;;0.00;0.00;19.20;67.60;;;18.32;52.03;100934.81;5016192;28;8836;-58
2021/01/25 10:19:35;;;;;;;;;0.50;0.00;19.20;67.60;;;18.31;52.10;100935.78;5032209;28;8935;-58
2021/01/25 10:22:02;;;;;;;;;0.00;0.00;19.20;67.60;;;18.31;51.82;100935.78;5026827;28;8840;-57
2021/01/25 10:24:29;;;;;;;;;0.00;0.00;19.20;67.60;;;18.30;52.00;100934.13;5020970;28;8816;-57
2021/01/25 10:26:55;;;;;;;;;0.00;0.00;19.20;67.60;;;18.31;52.00;100935.78;5029223;28;8846;-57
2021/01/25 10:29:22;;;;;;;;;0.00;0.00;19.40;67.80;;;18.30;52.22;100928.78;5017955;28;8808;-57